sensor_id;sensor_type;location;lat;lon;timestamp;P1;durP1;ratioP1;P2;durP2;ratioP2
37091;SDS011;23005;51.998;4.502;2022-09-09T00:01:51;16.85;;;7.78;;
37091;SDS011;23005;51.998;4.502;2022-09-09T00:03:44;18.17;;;7.30;;
37091;SDS011;23005;51.998;4.502;2022-09-09T00:05:40;12.93;;;7.38;;
37091;SDS011;23005;51.998;4.502;2022-09-09T00:07:35;16.05;;;7.90;;
37091;SDS011;23005;51.998;4.502;2022-09-09T00:09:29;15.80;;;7.20;;
37091;SDS011;23005;51.998;4.502;2022-09-09T00:11:24;17.25;;;7.97;;
37091;SDS011;23005;51.998;4.502;2022-09-09T00:13:22;17.48;;;7.90;;
37091;SDS011;23005;51.998;4.502;2022-09-09T00:15:17;15.95;;;7.68;;
37091;SDS011;23005;51.998;4.502;2022-09-09T00:17:12;19.30;;;8.75;;
37091;SDS011;23005;51.998;4.502;2022-09-09T00:19:08;17.00;;;7.97;;
37091;SDS011;23005;51.998;4.502;2022-09-09T00:21:05;17.33;;;8.57;;
37091;SDS011;23005;51.998;4.502;2022-09-09T00:22:59;20.23;;;8.32;;
37091;SDS011;23005;51.998;4.502;2022-09-09T00:24:53;17.17;;;8.90;;
37091;SDS011;23005;51.998;4.502;2022-09-09T00:26:45;11.60;;;7.60;;
37091;SDS011;23005;51.998;4.502;2022-09-09T00:28:39;13.75;;;8.05;;
37091;SDS011;23005;51.998;4.502;2022-09-09T00:30:34;16.23;;;8.05;;
37091;SDS011;23005;51.998;4.502;2022-09-09T00:32:28;17.35;;;8.73;;
37091;SDS011;23005;51.998;4.502;2022-09-09T00:34:21;18.25;;;8.82;;
37091;SDS011;23005;51.998;4.502;2022-09-09T00:36:14;16.25;;;8.88;;
37091;SDS011;23005;51.998;4.502;2022-09-09T00:38:09;17.85;;;9.18;;
37091;SDS011;23005;51.998;4.502;2022-09-09T00:40:05;16.13;;;10.20;;
37091;SDS011;23005;51.998;4.502;2022-09-09T00:42:13;16.70;;;9.95;;
37091;SDS011;23005;51.998;4.502;2022-09-09T00:44:10;16.27;;;9.88;;
37091;SDS011;23005;51.998;4.502;2022-09-09T00:46:13;17.63;;;10.45;;
37091;SDS011;23005;51.998;4.502;2022-09-09T00:48:13;18.13;;;10.40;;
37091;SDS011;23005;51.998;4.502;2022-09-09T00:51:59;18.95;;;10.68;;
37091;SDS011;23005;51.998;4.502;2022-09-09T00:53:58;19.95;;;11.00;;
37091;SDS011;23005;51.998;4.502;2022-09-09T00:55:59;20.13;;;10.43;;
37091;SDS011;23005;51.998;4.502;2022-09-09T00:57:54;22.00;;;11.00;;
37091;SDS011;23005;51.998;4.502;2022-09-09T00:59:46;14.90;;;9.55;;
37091;SDS011;23005;51.998;4.502;2022-09-09T01:01:37;16.27;;;9.25;;
37091;SDS011;23005;51.998;4.502;2022-09-09T01:03:32;19.88;;;10.18;;
37091;SDS011;23005;51.998;4.502;2022-09-09T01:05:27;19.48;;;10.18;;
37091;SDS011;23005;51.998;4.502;2022-09-09T01:07:20;17.60;;;9.50;;
37091;SDS011;23005;51.998;4.502;2022-09-09T01:09:13;21.40;;;10.20;;
37091;SDS011;23005;51.998;4.502;2022-09-09T01:11:07;13.93;;;9.55;;
37091;SDS011;23005;51.998;4.502;2022-09-09T01:13:02;19.73;;;9.00;;
37091;SDS011;23005;51.998;4.502;2022-09-09T01:15:01;21.17;;;10.23;;
37091;SDS011;23005;51.998;4.502;2022-09-09T01:16:55;22.52;;;9.95;;
37091;SDS011;23005;51.998;4.502;2022-09-09T01:20:41;19.53;;;9.37;;
37091;SDS011;23005;51.998;4.502;2022-09-09T01:22:39;19.33;;;10.30;;
37091;SDS011;23005;51.998;4.502;2022-09-09T01:24:38;19.05;;;9.63;;
37091;SDS011;23005;51.998;4.502;2022-09-09T01:26:33;16.52;;;8.88;;
37091;SDS011;23005;51.998;4.502;2022-09-09T01:28:25;21.27;;;8.90;;
37091;SDS011;23005;51.998;4.502;2022-09-09T01:30:17;18.65;;;8.88;;
37091;SDS011;23005;51.998;4.502;2022-09-09T01:34:30;18.88;;;8.52;;
37091;SDS011;23005;51.998;4.502;2022-09-09T01:36:25;15.57;;;7.93;;
37091;SDS011;23005;51.998;4.502;2022-09-09T01:38:19;16.42;;;8.95;;
37091;SDS011;23005;51.998;4.502;2022-09-09T01:40:10;22.33;;;8.73;;
37091;SDS011;23005;51.998;4.502;2022-09-09T01:42:02;20.42;;;8.13;;
37091;SDS011;23005;51.998;4.502;2022-09-09T01:43:54;17.00;;;7.47;;
37091;SDS011;23005;51.998;4.502;2022-09-09T01:45:44;16.38;;;7.55;;
37091;SDS011;23005;51.998;4.502;2022-09-09T01:47:36;12.82;;;7.18;;
37091;SDS011;23005;51.998;4.502;2022-09-09T01:49:27;13.05;;;6.88;;
37091;SDS011;23005;51.998;4.502;2022-09-09T01:51:18;19.23;;;6.93;;
37091;SDS011;23005;51.998;4.502;2022-09-09T01:53:09;14.75;;;6.43;;
37091;SDS011;23005;51.998;4.502;2022-09-09T01:55:00;13.88;;;7.28;;
37091;SDS011;23005;51.998;4.502;2022-09-09T01:56:54;16.23;;;7.10;;
37091;SDS011;23005;51.998;4.502;2022-09-09T01:58:58;14.77;;;6.50;;
37091;SDS011;23005;51.998;4.502;2022-09-09T02:00:54;13.98;;;6.57;;
37091;SDS011;23005;51.998;4.502;2022-09-09T02:02:52;14.32;;;6.10;;
37091;SDS011;23005;51.998;4.502;2022-09-09T02:04:47;12.43;;;6.07;;
37091;SDS011;23005;51.998;4.502;2022-09-09T02:06:38;13.65;;;6.32;;
37091;SDS011;23005;51.998;4.502;2022-09-09T02:08:32;15.10;;;6.37;;
37091;SDS011;23005;51.998;4.502;2022-09-09T02:10:28;11.85;;;5.43;;
37091;SDS011;23005;51.998;4.502;2022-09-09T02:12:23;11.98;;;5.38;;
37091;SDS011;23005;51.998;4.502;2022-09-09T02:14:16;17.88;;;5.43;;
37091;SDS011;23005;51.998;4.502;2022-09-09T02:16:10;14.85;;;4.97;;
37091;SDS011;23005;51.998;4.502;2022-09-09T02:18:03;9.43;;;4.32;;
37091;SDS011;23005;51.998;4.502;2022-09-09T02:19:57;15.80;;;4.50;;
37091;SDS011;23005;51.998;4.502;2022-09-09T02:21:53;10.05;;;3.95;;
37091;SDS011;23005;51.998;4.502;2022-09-09T02:23:47;16.48;;;4.55;;
37091;SDS011;23005;51.998;4.502;2022-09-09T02:25:39;11.90;;;4.15;;
37091;SDS011;23005;51.998;4.502;2022-09-09T02:27:32;10.30;;;4.00;;
37091;SDS011;23005;51.998;4.502;2022-09-09T02:29:23;16.00;;;4.68;;
37091;SDS011;23005;51.998;4.502;2022-09-09T02:31:17;9.50;;;4.60;;
37091;SDS011;23005;51.998;4.502;2022-09-09T02:33:10;12.13;;;4.25;;
37091;SDS011;23005;51.998;4.502;2022-09-09T02:35:02;13.97;;;4.67;;
37091;SDS011;23005;51.998;4.502;2022-09-09T02:36:55;16.45;;;4.45;;
37091;SDS011;23005;51.998;4.502;2022-09-09T02:38:48;13.00;;;4.40;;
37091;SDS011;23005;51.998;4.502;2022-09-09T02:40:38;11.82;;;4.55;;
37091;SDS011;23005;51.998;4.502;2022-09-09T02:42:29;9.70;;;3.85;;
37091;SDS011;23005;51.998;4.502;2022-09-09T02:44:21;14.93;;;5.13;;
37091;SDS011;23005;51.998;4.502;2022-09-09T02:46:15;13.63;;;4.50;;
37091;SDS011;23005;51.998;4.502;2022-09-09T02:48:17;10.85;;;4.22;;
37091;SDS011;23005;51.998;4.502;2022-09-09T02:50:13;13.02;;;4.68;;
37091;SDS011;23005;51.998;4.502;2022-09-09T02:52:06;13.13;;;4.63;;
37091;SDS011;23005;51.998;4.502;2022-09-09T02:55:49;11.02;;;4.35;;
37091;SDS011;23005;51.998;4.502;2022-09-09T02:57:43;14.00;;;4.75;;
37091;SDS011;23005;51.998;4.502;2022-09-09T02:59:37;13.13;;;4.80;;
37091;SDS011;23005;51.998;4.502;2022-09-09T03:01:28;16.23;;;4.70;;
37091;SDS011;23005;51.998;4.502;2022-09-09T03:03:19;13.77;;;4.55;;
37091;SDS011;23005;51.998;4.502;2022-09-09T03:05:10;14.00;;;3.95;;
37091;SDS011;23005;51.998;4.502;2022-09-09T03:07:00;11.68;;;4.20;;
37091;SDS011;23005;51.998;4.502;2022-09-09T03:08:51;12.63;;;3.70;;
37091;SDS011;23005;51.998;4.502;2022-09-09T03:10:41;8.57;;;3.80;;
37091;SDS011;23005;51.998;4.502;2022-09-09T03:12:32;14.85;;;4.00;;
37091;SDS011;23005;51.998;4.502;2022-09-09T03:14:22;14.77;;;4.35;;
37091;SDS011;23005;51.998;4.502;2022-09-09T03:16:15;11.10;;;3.80;;
37091;SDS011;23005;51.998;4.502;2022-09-09T03:18:06;12.95;;;4.40;;
37091;SDS011;23005;51.998;4.502;2022-09-09T03:19:57;10.07;;;3.20;;
37091;SDS011;23005;51.998;4.502;2022-09-09T03:21:47;15.80;;;3.75;;
37091;SDS011;23005;51.998;4.502;2022-09-09T03:23:38;9.20;;;3.58;;
37091;SDS011;23005;51.998;4.502;2022-09-09T03:25:28;11.70;;;3.55;;
37091;SDS011;23005;51.998;4.502;2022-09-09T03:27:19;9.07;;;3.80;;
37091;SDS011;23005;51.998;4.502;2022-09-09T03:29:10;14.05;;;3.33;;
37091;SDS011;23005;51.998;4.502;2022-09-09T03:31:01;13.23;;;3.45;;
37091;SDS011;23005;51.998;4.502;2022-09-09T03:32:54;12.93;;;3.58;;
37091;SDS011;23005;51.998;4.502;2022-09-09T03:34:44;10.57;;;3.08;;
37091;SDS011;23005;51.998;4.502;2022-09-09T03:36:35;8.32;;;3.05;;
37091;SDS011;23005;51.998;4.502;2022-09-09T03:38:25;15.25;;;3.25;;
37091;SDS011;23005;51.998;4.502;2022-09-09T03:40:16;13.73;;;3.25;;
37091;SDS011;23005;51.998;4.502;2022-09-09T03:42:07;13.57;;;3.70;;
37091;SDS011;23005;51.998;4.502;2022-09-09T03:43:58;12.73;;;3.45;;
37091;SDS011;23005;51.998;4.502;2022-09-09T03:45:49;15.98;;;3.53;;
37091;SDS011;23005;51.998;4.502;2022-09-09T03:47:40;13.50;;;3.53;;
37091;SDS011;23005;51.998;4.502;2022-09-09T03:49:32;15.35;;;3.95;;
37091;SDS011;23005;51.998;4.502;2022-09-09T03:51:22;10.38;;;3.38;;
37091;SDS011;23005;51.998;4.502;2022-09-09T03:53:13;10.85;;;3.30;;
37091;SDS011;23005;51.998;4.502;2022-09-09T03:55:06;17.20;;;4.13;;
37091;SDS011;23005;51.998;4.502;2022-09-09T03:56:57;17.85;;;3.15;;
37091;SDS011;23005;51.998;4.502;2022-09-09T03:58:48;10.73;;;2.85;;
37091;SDS011;23005;51.998;4.502;2022-09-09T04:00:38;7.93;;;2.97;;
37091;SDS011;23005;51.998;4.502;2022-09-09T04:02:29;10.30;;;3.08;;
37091;SDS011;23005;51.998;4.502;2022-09-09T04:04:19;11.77;;;2.90;;
37091;SDS011;23005;51.998;4.502;2022-09-09T04:06:12;14.45;;;3.42;;
37091;SDS011;23005;51.998;4.502;2022-09-09T04:08:03;11.75;;;3.08;;
37091;SDS011;23005;51.998;4.502;2022-09-09T04:09:53;13.93;;;3.67;;
37091;SDS011;23005;51.998;4.502;2022-09-09T04:11:43;13.45;;;3.05;;
37091;SDS011;23005;51.998;4.502;2022-09-09T04:13:34;12.18;;;2.97;;
37091;SDS011;23005;51.998;4.502;2022-09-09T04:15:26;11.93;;;3.07;;
37091;SDS011;23005;51.998;4.502;2022-09-09T04:17:16;14.60;;;3.58;;
37091;SDS011;23005;51.998;4.502;2022-09-09T04:19:07;13.80;;;2.95;;
37091;SDS011;23005;51.998;4.502;2022-09-09T04:20:57;12.38;;;3.58;;
37091;SDS011;23005;51.998;4.502;2022-09-09T04:22:49;12.18;;;3.10;;
37091;SDS011;23005;51.998;4.502;2022-09-09T04:24:40;10.32;;;2.65;;
37091;SDS011;23005;51.998;4.502;2022-09-09T04:26:38;11.93;;;2.83;;
37091;SDS011;23005;51.998;4.502;2022-09-09T04:28:30;13.37;;;3.27;;
37091;SDS011;23005;51.998;4.502;2022-09-09T04:30:21;15.38;;;3.55;;
37091;SDS011;23005;51.998;4.502;2022-09-09T04:32:12;12.35;;;3.47;;
37091;SDS011;23005;51.998;4.502;2022-09-09T04:34:03;18.98;;;4.32;;
37091;SDS011;23005;51.998;4.502;2022-09-09T04:35:53;10.98;;;3.67;;
37091;SDS011;23005;51.998;4.502;2022-09-09T04:37:44;16.92;;;3.65;;
37091;SDS011;23005;51.998;4.502;2022-09-09T04:39:35;12.63;;;3.42;;
37091;SDS011;23005;51.998;4.502;2022-09-09T04:41:26;13.27;;;3.38;;
37091;SDS011;23005;51.998;4.502;2022-09-09T04:43:16;10.65;;;3.15;;
37091;SDS011;23005;51.998;4.502;2022-09-09T04:45:08;13.10;;;3.47;;
37091;SDS011;23005;51.998;4.502;2022-09-09T04:46:58;12.23;;;3.75;;
37091;SDS011;23005;51.998;4.502;2022-09-09T04:48:49;15.50;;;4.43;;
37091;SDS011;23005;51.998;4.502;2022-09-09T04:50:40;16.38;;;4.15;;
37091;SDS011;23005;51.998;4.502;2022-09-09T04:52:30;16.00;;;3.88;;
37091;SDS011;23005;51.998;4.502;2022-09-09T04:54:23;14.13;;;4.03;;
37091;SDS011;23005;51.998;4.502;2022-09-09T04:56:15;15.57;;;3.53;;
37091;SDS011;23005;51.998;4.502;2022-09-09T04:58:07;15.95;;;4.38;;
37091;SDS011;23005;51.998;4.502;2022-09-09T04:59:58;11.53;;;3.83;;
37091;SDS011;23005;51.998;4.502;2022-09-09T05:01:49;15.43;;;4.03;;
37091;SDS011;23005;51.998;4.502;2022-09-09T05:03:41;14.20;;;4.50;;
37091;SDS011;23005;51.998;4.502;2022-09-09T05:05:32;16.60;;;4.32;;
37091;SDS011;23005;51.998;4.502;2022-09-09T05:07:23;15.25;;;4.45;;
37091;SDS011;23005;51.998;4.502;2022-09-09T05:09:14;13.20;;;4.40;;
37091;SDS011;23005;51.998;4.502;2022-09-09T05:11:12;14.52;;;4.78;;
37091;SDS011;23005;51.998;4.502;2022-09-09T05:13:08;15.55;;;4.85;;
37091;SDS011;23005;51.998;4.502;2022-09-09T05:14:58;13.85;;;4.40;;
37091;SDS011;23005;51.998;4.502;2022-09-09T05:16:49;17.65;;;4.95;;
37091;SDS011;23005;51.998;4.502;2022-09-09T05:18:39;17.98;;;5.60;;
37091;SDS011;23005;51.998;4.502;2022-09-09T05:20:38;19.85;;;4.82;;
37091;SDS011;23005;51.998;4.502;2022-09-09T05:22:28;14.82;;;4.50;;
37091;SDS011;23005;51.998;4.502;2022-09-09T05:24:19;12.60;;;4.00;;
37091;SDS011;23005;51.998;4.502;2022-09-09T05:26:11;15.07;;;4.95;;
37091;SDS011;23005;51.998;4.502;2022-09-09T05:28:08;15.85;;;4.22;;
37091;SDS011;23005;51.998;4.502;2022-09-09T05:29:58;12.75;;;3.90;;
37091;SDS011;23005;51.998;4.502;2022-09-09T05:31:49;18.17;;;4.45;;
37091;SDS011;23005;51.998;4.502;2022-09-09T05:33:40;17.45;;;4.43;;
37091;SDS011;23005;51.998;4.502;2022-09-09T05:35:31;19.63;;;4.50;;
37091;SDS011;23005;51.998;4.502;2022-09-09T05:37:21;22.70;;;5.13;;
37091;SDS011;23005;51.998;4.502;2022-09-09T05:39:12;15.02;;;4.03;;
37091;SDS011;23005;51.998;4.502;2022-09-09T05:41:02;16.42;;;4.35;;
37091;SDS011;23005;51.998;4.502;2022-09-09T05:42:53;15.70;;;4.13;;
37091;SDS011;23005;51.998;4.502;2022-09-09T05:44:45;19.10;;;4.25;;
37091;SDS011;23005;51.998;4.502;2022-09-09T05:46:35;15.57;;;4.20;;
37091;SDS011;23005;51.998;4.502;2022-09-09T05:48:27;14.95;;;4.05;;
37091;SDS011;23005;51.998;4.502;2022-09-09T05:50:18;25.92;;;4.82;;
37091;SDS011;23005;51.998;4.502;2022-09-09T05:52:09;21.23;;;4.70;;
37091;SDS011;23005;51.998;4.502;2022-09-09T05:53:59;13.60;;;4.35;;
37091;SDS011;23005;51.998;4.502;2022-09-09T05:55:50;19.98;;;4.03;;
37091;SDS011;23005;51.998;4.502;2022-09-09T05:57:40;13.57;;;3.85;;
37091;SDS011;23005;51.998;4.502;2022-09-09T05:59:30;17.70;;;4.07;;
37091;SDS011;23005;51.998;4.502;2022-09-09T06:01:23;14.50;;;3.92;;
37091;SDS011;23005;51.998;4.502;2022-09-09T06:03:15;18.40;;;4.10;;
37091;SDS011;23005;51.998;4.502;2022-09-09T06:05:06;14.10;;;3.88;;
37091;SDS011;23005;51.998;4.502;2022-09-09T06:06:57;17.38;;;4.32;;
37091;SDS011;23005;51.998;4.502;2022-09-09T06:08:49;17.25;;;3.60;;
37091;SDS011;23005;51.998;4.502;2022-09-09T06:10:40;18.90;;;3.95;;
37091;SDS011;23005;51.998;4.502;2022-09-09T06:12:31;15.77;;;3.90;;
37091;SDS011;23005;51.998;4.502;2022-09-09T06:14:21;21.38;;;3.70;;
37091;SDS011;23005;51.998;4.502;2022-09-09T06:16:12;18.17;;;3.72;;
37091;SDS011;23005;51.998;4.502;2022-09-09T06:19:55;22.80;;;4.60;;
37091;SDS011;23005;51.998;4.502;2022-09-09T06:21:46;15.75;;;3.88;;
37091;SDS011;23005;51.998;4.502;2022-09-09T06:23:36;21.20;;;4.55;;
37091;SDS011;23005;51.998;4.502;2022-09-09T06:25:29;16.92;;;3.75;;
37091;SDS011;23005;51.998;4.502;2022-09-09T06:27:20;16.17;;;3.65;;
37091;SDS011;23005;51.998;4.502;2022-09-09T06:29:11;18.40;;;3.83;;
37091;SDS011;23005;51.998;4.502;2022-09-09T06:31:02;14.40;;;3.60;;
37091;SDS011;23005;51.998;4.502;2022-09-09T06:32:55;16.50;;;4.00;;
37091;SDS011;23005;51.998;4.502;2022-09-09T06:34:46;17.73;;;3.58;;
37091;SDS011;23005;51.998;4.502;2022-09-09T06:36:38;15.50;;;3.88;;
37091;SDS011;23005;51.998;4.502;2022-09-09T06:41:56;15.65;;;3.60;;
37091;SDS011;23005;51.998;4.502;2022-09-09T06:43:47;19.23;;;3.83;;
37091;SDS011;23005;51.998;4.502;2022-09-09T06:45:37;19.83;;;4.28;;
37091;SDS011;23005;51.998;4.502;2022-09-09T06:47:28;16.25;;;3.70;;
37091;SDS011;23005;51.998;4.502;2022-09-09T06:49:19;19.02;;;5.07;;
37091;SDS011;23005;51.998;4.502;2022-09-09T06:51:12;24.25;;;4.47;;
37091;SDS011;23005;51.998;4.502;2022-09-09T06:53:03;26.77;;;5.35;;
37091;SDS011;23005;51.998;4.502;2022-09-09T06:54:53;14.65;;;4.28;;
37091;SDS011;23005;51.998;4.502;2022-09-09T06:56:44;23.88;;;4.25;;
37091;SDS011;23005;51.998;4.502;2022-09-09T06:58:36;19.67;;;4.30;;
37091;SDS011;23005;51.998;4.502;2022-09-09T07:00:26;18.48;;;4.57;;
37091;SDS011;23005;51.998;4.502;2022-09-09T07:02:17;21.20;;;4.57;;
37091;SDS011;23005;51.998;4.502;2022-09-09T07:04:08;17.08;;;4.18;;
37091;SDS011;23005;51.998;4.502;2022-09-09T07:05:59;16.95;;;3.72;;
37091;SDS011;23005;51.998;4.502;2022-09-09T07:07:51;28.00;;;5.05;;
37091;SDS011;23005;51.998;4.502;2022-09-09T07:09:43;15.23;;;4.70;;
37091;SDS011;23005;51.998;4.502;2022-09-09T07:11:34;17.88;;;4.82;;
37091;SDS011;23005;51.998;4.502;2022-09-09T07:13:27;15.60;;;4.30;;
37091;SDS011;23005;51.998;4.502;2022-09-09T07:15:18;14.95;;;4.88;;
37091;SDS011;23005;51.998;4.502;2022-09-09T07:17:08;20.45;;;4.55;;
37091;SDS011;23005;51.998;4.502;2022-09-09T07:19:00;15.52;;;4.15;;
37091;SDS011;23005;51.998;4.502;2022-09-09T07:20:55;26.02;;;5.95;;
37091;SDS011;23005;51.998;4.502;2022-09-09T07:23:17;16.35;;;4.88;;
37091;SDS011;23005;51.998;4.502;2022-09-09T07:25:13;16.42;;;5.32;;
37091;SDS011;23005;51.998;4.502;2022-09-09T07:27:06;18.45;;;4.68;;
37091;SDS011;23005;51.998;4.502;2022-09-09T07:29:03;19.15;;;5.05;;
37091;SDS011;23005;51.998;4.502;2022-09-09T07:31:15;16.42;;;4.53;;
37091;SDS011;23005;51.998;4.502;2022-09-09T07:33:18;20.02;;;4.80;;
37091;SDS011;23005;51.998;4.502;2022-09-09T07:35:20;16.30;;;4.90;;
37091;SDS011;23005;51.998;4.502;2022-09-09T07:37:26;23.17;;;6.18;;
37091;SDS011;23005;51.998;4.502;2022-09-09T07:39:38;14.77;;;5.22;;
37091;SDS011;23005;51.998;4.502;2022-09-09T07:41:55;16.45;;;4.82;;
37091;SDS011;23005;51.998;4.502;2022-09-09T07:43:46;16.13;;;4.97;;
37091;SDS011;23005;51.998;4.502;2022-09-09T07:45:37;20.02;;;5.13;;
37091;SDS011;23005;51.998;4.502;2022-09-09T07:47:28;24.67;;;5.03;;
37091;SDS011;23005;51.998;4.502;2022-09-09T07:49:19;20.48;;;4.93;;
37091;SDS011;23005;51.998;4.502;2022-09-09T07:51:21;20.70;;;5.43;;
37091;SDS011;23005;51.998;4.502;2022-09-09T07:53:12;19.55;;;4.55;;
37091;SDS011;23005;51.998;4.502;2022-09-09T07:55:04;16.92;;;4.65;;
37091;SDS011;23005;51.998;4.502;2022-09-09T07:56:55;19.90;;;4.68;;
37091;SDS011;23005;51.998;4.502;2022-09-09T07:58:46;16.33;;;4.00;;
37091;SDS011;23005;51.998;4.502;2022-09-09T08:00:37;18.70;;;4.13;;
37091;SDS011;23005;51.998;4.502;2022-09-09T08:02:27;20.00;;;5.38;;
37091;SDS011;23005;51.998;4.502;2022-09-09T08:04:18;19.27;;;5.05;;
37091;SDS011;23005;51.998;4.502;2022-09-09T08:06:10;18.65;;;4.68;;
37091;SDS011;23005;51.998;4.502;2022-09-09T08:08:01;10.93;;;3.85;;
37091;SDS011;23005;51.998;4.502;2022-09-09T08:09:51;15.38;;;3.85;;
37091;SDS011;23005;51.998;4.502;2022-09-09T08:11:44;18.83;;;4.63;;
37091;SDS011;23005;51.998;4.502;2022-09-09T08:15:25;18.70;;;4.18;;
37091;SDS011;23005;51.998;4.502;2022-09-09T08:17:15;18.58;;;5.03;;
37091;SDS011;23005;51.998;4.502;2022-09-09T08:19:06;22.17;;;4.28;;
37091;SDS011;23005;51.998;4.502;2022-09-09T08:20:57;18.60;;;4.00;;
37091;SDS011;23005;51.998;4.502;2022-09-09T08:22:47;16.00;;;4.25;;
37091;SDS011;23005;51.998;4.502;2022-09-09T08:24:38;18.05;;;4.60;;
37091;SDS011;23005;51.998;4.502;2022-09-09T08:26:29;15.32;;;4.05;;
37091;SDS011;23005;51.998;4.502;2022-09-09T08:28:22;30.23;;;4.90;;
37091;SDS011;23005;51.998;4.502;2022-09-09T08:30:14;13.23;;;3.80;;
37091;SDS011;23005;51.998;4.502;2022-09-09T08:32:04;17.15;;;4.00;;
37091;SDS011;23005;51.998;4.502;2022-09-09T08:33:55;16.67;;;4.28;;
37091;SDS011;23005;51.998;4.502;2022-09-09T08:35:49;15.88;;;4.07;;
37091;SDS011;23005;51.998;4.502;2022-09-09T08:37:40;25.40;;;4.60;;
37091;SDS011;23005;51.998;4.502;2022-09-09T08:39:31;18.73;;;4.80;;
37091;SDS011;23005;51.998;4.502;2022-09-09T08:44:00;19.33;;;4.47;;
37091;SDS011;23005;51.998;4.502;2022-09-09T08:45:55;15.65;;;4.10;;
37091;SDS011;23005;51.998;4.502;2022-09-09T08:47:50;20.08;;;4.30;;
37091;SDS011;23005;51.998;4.502;2022-09-09T08:49:51;19.30;;;4.47;;
37091;SDS011;23005;51.998;4.502;2022-09-09T08:51:52;19.58;;;4.72;;
37091;SDS011;23005;51.998;4.502;2022-09-09T08:53:45;17.17;;;4.10;;
37091;SDS011;23005;51.998;4.502;2022-09-09T08:55:40;15.32;;;4.30;;
37091;SDS011;23005;51.998;4.502;2022-09-09T08:57:33;15.10;;;4.15;;
37091;SDS011;23005;51.998;4.502;2022-09-09T08:59:25;16.15;;;3.78;;
37091;SDS011;23005;51.998;4.502;2022-09-09T09:01:23;14.50;;;4.00;;
37091;SDS011;23005;51.998;4.502;2022-09-09T09:03:23;21.40;;;4.60;;
37091;SDS011;23005;51.998;4.502;2022-09-09T09:05:19;22.27;;;4.63;;
37091;SDS011;23005;51.998;4.502;2022-09-09T09:07:17;22.30;;;4.55;;
37091;SDS011;23005;51.998;4.502;2022-09-09T09:09:16;18.10;;;4.30;;
37091;SDS011;23005;51.998;4.502;2022-09-09T09:11:13;17.05;;;4.18;;
37091;SDS011;23005;51.998;4.502;2022-09-09T09:13:06;15.63;;;4.80;;
37091;SDS011;23005;51.998;4.502;2022-09-09T09:15:01;19.40;;;4.10;;
37091;SDS011;23005;51.998;4.502;2022-09-09T09:16:53;12.52;;;4.07;;
37091;SDS011;23005;51.998;4.502;2022-09-09T09:18:46;16.95;;;4.53;;
37091;SDS011;23005;51.998;4.502;2022-09-09T09:20:38;17.50;;;3.88;;
37091;SDS011;23005;51.998;4.502;2022-09-09T09:22:37;18.52;;;4.05;;
37091;SDS011;23005;51.998;4.502;2022-09-09T09:24:34;16.83;;;3.97;;
37091;SDS011;23005;51.998;4.502;2022-09-09T09:26:33;18.23;;;4.50;;
37091;SDS011;23005;51.998;4.502;2022-09-09T09:28:26;18.13;;;4.63;;
37091;SDS011;23005;51.998;4.502;2022-09-09T09:30:19;21.42;;;4.93;;
37091;SDS011;23005;51.998;4.502;2022-09-09T09:32:19;18.88;;;4.65;;
37091;SDS011;23005;51.998;4.502;2022-09-09T09:36:02;18.40;;;4.80;;
37091;SDS011;23005;51.998;4.502;2022-09-09T09:37:53;24.87;;;5.50;;
37091;SDS011;23005;51.998;4.502;2022-09-09T09:40:09;15.45;;;4.80;;
37091;SDS011;23005;51.998;4.502;2022-09-09T09:42:07;18.08;;;4.80;;
37091;SDS011;23005;51.998;4.502;2022-09-09T09:43:59;19.05;;;6.05;;
37091;SDS011;23005;51.998;4.502;2022-09-09T09:45:52;17.52;;;4.35;;
37091;SDS011;23005;51.998;4.502;2022-09-09T09:48:03;15.93;;;6.15;;
37091;SDS011;23005;51.998;4.502;2022-09-09T09:49:57;20.92;;;4.80;;
37091;SDS011;23005;51.998;4.502;2022-09-09T09:51:54;16.75;;;4.70;;
37091;SDS011;23005;51.998;4.502;2022-09-09T09:53:53;15.85;;;4.50;;
37091;SDS011;23005;51.998;4.502;2022-09-09T09:55:46;17.10;;;4.60;;
37091;SDS011;23005;51.998;4.502;2022-09-09T09:57:41;21.42;;;5.05;;
37091;SDS011;23005;51.998;4.502;2022-09-09T09:59:38;15.87;;;4.47;;
37091;SDS011;23005;51.998;4.502;2022-09-09T10:01:32;16.17;;;4.43;;
37091;SDS011;23005;51.998;4.502;2022-09-09T10:03:24;16.38;;;4.15;;
37091;SDS011;23005;51.998;4.502;2022-09-09T10:05:17;15.30;;;3.88;;
37091;SDS011;23005;51.998;4.502;2022-09-09T10:07:18;16.25;;;4.40;;
37091;SDS011;23005;51.998;4.502;2022-09-09T10:09:20;24.90;;;5.28;;
37091;SDS011;23005;51.998;4.502;2022-09-09T10:11:24;15.23;;;4.53;;
37091;SDS011;23005;51.998;4.502;2022-09-09T10:13:31;14.60;;;4.57;;
37091;SDS011;23005;51.998;4.502;2022-09-09T10:15:32;16.40;;;5.00;;
37091;SDS011;23005;51.998;4.502;2022-09-09T10:17:32;19.50;;;6.07;;
37091;SDS011;23005;51.998;4.502;2022-09-09T10:19:29;20.08;;;5.53;;
37091;SDS011;23005;51.998;4.502;2022-09-09T10:21:24;18.95;;;6.57;;
37091;SDS011;23005;51.998;4.502;2022-09-09T10:23:35;17.05;;;5.78;;
37091;SDS011;23005;51.998;4.502;2022-09-09T10:25:40;24.17;;;6.97;;
37091;SDS011;23005;51.998;4.502;2022-09-09T10:27:42;18.83;;;5.68;;
37091;SDS011;23005;51.998;4.502;2022-09-09T10:29:45;20.65;;;6.30;;
37091;SDS011;23005;51.998;4.502;2022-09-09T10:31:47;18.95;;;6.28;;
37091;SDS011;23005;51.998;4.502;2022-09-09T10:33:44;19.85;;;6.72;;
37091;SDS011;23005;51.998;4.502;2022-09-09T10:35:41;23.42;;;6.25;;
37091;SDS011;23005;51.998;4.502;2022-09-09T10:37:46;16.05;;;5.93;;
37091;SDS011;23005;51.998;4.502;2022-09-09T10:39:59;16.13;;;5.80;;
37091;SDS011;23005;51.998;4.502;2022-09-09T10:41:57;16.88;;;5.93;;
37091;SDS011;23005;51.998;4.502;2022-09-09T10:44:02;22.90;;;5.57;;
37091;SDS011;23005;51.998;4.502;2022-09-09T10:46:04;17.17;;;5.20;;
37091;SDS011;23005;51.998;4.502;2022-09-09T10:48:00;21.40;;;4.57;;
37091;SDS011;23005;51.998;4.502;2022-09-09T10:50:13;12.82;;;4.68;;
37091;SDS011;23005;51.998;4.502;2022-09-09T10:52:21;18.00;;;4.70;;
37091;SDS011;23005;51.998;4.502;2022-09-09T10:54:22;16.90;;;4.78;;
37091;SDS011;23005;51.998;4.502;2022-09-09T10:56:23;14.38;;;4.50;;
37091;SDS011;23005;51.998;4.502;2022-09-09T10:58:14;13.88;;;4.63;;
37091;SDS011;23005;51.998;4.502;2022-09-09T11:00:14;16.27;;;4.35;;
37091;SDS011;23005;51.998;4.502;2022-09-09T11:02:10;15.48;;;4.72;;
37091;SDS011;23005;51.998;4.502;2022-09-09T11:04:09;16.48;;;4.55;;
37091;SDS011;23005;51.998;4.502;2022-09-09T11:06:05;13.00;;;4.45;;
37091;SDS011;23005;51.998;4.502;2022-09-09T11:07:57;15.48;;;4.55;;
37091;SDS011;23005;51.998;4.502;2022-09-09T11:09:52;13.88;;;4.30;;
37091;SDS011;23005;51.998;4.502;2022-09-09T11:11:45;14.98;;;4.60;;
37091;SDS011;23005;51.998;4.502;2022-09-09T11:13:52;13.65;;;4.55;;
37091;SDS011;23005;51.998;4.502;2022-09-09T11:15:51;15.27;;;4.53;;
37091;SDS011;23005;51.998;4.502;2022-09-09T11:17:58;14.00;;;4.43;;
37091;SDS011;23005;51.998;4.502;2022-09-09T11:19:51;12.30;;;3.70;;
37091;SDS011;23005;51.998;4.502;2022-09-09T11:21:44;14.07;;;4.15;;
37091;SDS011;23005;51.998;4.502;2022-09-09T11:23:38;12.60;;;3.95;;
37091;SDS011;23005;51.998;4.502;2022-09-09T11:25:32;13.25;;;4.18;;
37091;SDS011;23005;51.998;4.502;2022-09-09T11:27:26;15.63;;;4.05;;
37091;SDS011;23005;51.998;4.502;2022-09-09T11:31:44;18.33;;;5.05;;
37091;SDS011;23005;51.998;4.502;2022-09-09T11:33:53;15.82;;;4.65;;
37091;SDS011;23005;51.998;4.502;2022-09-09T11:35:54;14.07;;;4.10;;
37091;SDS011;23005;51.998;4.502;2022-09-09T11:38:03;11.00;;;3.65;;
37091;SDS011;23005;51.998;4.502;2022-09-09T11:40:07;13.48;;;4.07;;